createdAt,value
2023-05-04T00:00:55.928Z,102009.55
2023-05-04T00:03:43.139Z,102009.21
2023-05-04T00:06:36.719Z,102010.50
2023-05-04T00:10:05.633Z,102008.16
2023-05-04T00:13:14.317Z,102010.71
2023-05-04T00:16:04.187Z,102014.95
2023-05-04T00:19:06.305Z,102016.60
2023-05-04T00:21:48.269Z,102014.61
2023-05-04T00:24:37.302Z,102012.59
2023-05-04T00:27:42.320Z,102014.44
2023-05-04T00:30:41.118Z,102009.78
2023-05-04T00:33:33.681Z,102007.58
2023-05-04T00:36:27.612Z,102004.73
2023-05-04T00:39:08.821Z,102004.70
2023-05-04T00:42:19.698Z,102005.80
2023-05-04T00:45:10.863Z,102003.56
2023-05-04T00:48:39.514Z,102002.22
2023-05-04T00:52:10.557Z,102007.63
2023-05-04T00:54:57.904Z,102007.95
2023-05-04T00:58:29.766Z,102005.91
2023-05-04T01:01:20.169Z,102012.89
2023-05-04T01:04:51.789Z,102014.02
2023-05-04T01:08:55.506Z,102018.99
2023-05-04T01:12:29.579Z,102010.79
2023-05-04T01:16:07.177Z,102014.92
2023-05-04T01:19:11.518Z,102014.08
2023-05-04T01:22:16.077Z,102017.36
2023-05-04T01:25:34.805Z,102014.02
2023-05-04T01:28:45.528Z,102015.19
2023-05-04T01:31:57.027Z,102011.14
2023-05-04T01:35:26.828Z,102014.08
2023-05-04T01:38:32.931Z,102014.08
2023-05-04T01:42:05.118Z,102010.50
2023-05-04T01:45:37.118Z,102017.98
2023-05-04T01:48:46.908Z,102012.23
2023-05-04T01:51:43.146Z,102013.00
2023-05-04T01:55:01.429Z,102011.50
2023-05-04T01:57:56.935Z,102008.83
2023-05-04T02:00:37.944Z,102002.88
2023-05-04T02:03:49.217Z,102006.30
2023-05-04T02:07:00.364Z,102009.15
2023-05-04T02:09:36.286Z,102009.11
2023-05-04T02:12:28.085Z,102007.34
2023-05-04T02:15:28.485Z,102009.65
2023-05-04T02:17:59.899Z,102011.21
2023-05-04T02:21:29.015Z,102013.83
2023-05-04T02:24:43.213Z,102011.23
2023-05-04T02:27:25.409Z,102017.38
2023-05-04T02:29:59.104Z,102017.55
2023-05-04T02:32:27.620Z,102015.67
2023-05-04T02:35:24.623Z,102019.08
2023-05-04T02:38:07.704Z,102015.84
2023-05-04T02:40:38.057Z,102016.27
2023-05-04T02:43:17.474Z,102014.15
2023-05-04T02:46:33.030Z,102013.02
2023-05-04T02:49:14.231Z,102009.38
2023-05-04T02:52:05.549Z,102009.78
2023-05-04T02:54:38.464Z,102010.05
2023-05-04T02:57:20.333Z,102010.82
2023-05-04T03:00:31.335Z,102008.95
2023-05-04T03:03:17.007Z,102008.73
2023-05-04T03:06:03.116Z,102014.59
2023-05-04T03:08:36.907Z,102014.92
2023-05-04T03:11:18.657Z,102014.15
2023-05-04T03:14:49.909Z,102013.55
2023-05-04T03:17:58.650Z,102014.73
2023-05-04T03:20:46.356Z,102014.10
2023-05-04T03:23:37.636Z,102010.73
2023-05-04T03:26:16.141Z,102016.11
2023-05-04T03:28:57.458Z,102017.55
2023-05-04T03:31:28.865Z,102015.14
2023-05-04T03:34:23.321Z,102011.17
2023-05-04T03:37:16.847Z,102010.26
2023-05-04T03:40:35.600Z,102008.95
2023-05-04T03:43:37.916Z,102007.08
2023-05-04T03:46:50.534Z,102011.23
2023-05-04T03:49:46.048Z,102014.18
2023-05-04T03:53:26.611Z,102014.98
2023-05-04T03:56:58.207Z,102013.26
2023-05-04T03:59:39.087Z,102013.34
2023-05-04T04:02:34.589Z,102010.21
2023-05-04T04:05:37.514Z,102007.94
2023-05-04T04:08:50.252Z,102006.77
2023-05-04T04:12:33.251Z,102008.59
2023-05-04T04:16:22.224Z,102006.77
2023-05-04T04:19:52.380Z,102006.77
2023-05-04T04:23:13.286Z,102010.73
2023-05-04T04:25:55.446Z,102008.00
2023-05-04T04:29:44.349Z,102007.16
2023-05-04T04:33:06.084Z,102006.50
2023-05-04T04:36:38.004Z,102007.73
2023-05-04T04:39:29.063Z,102006.33
2023-05-04T04:42:14.973Z,102004.64
2023-05-04T04:45:20.880Z,102003.19
2023-05-04T04:48:45.217Z,102004.52
2023-05-04T04:52:04.059Z,102001.45
2023-05-04T04:54:52.746Z,102002.73
2023-05-04T04:57:54.371Z,102002.70
2023-05-04T05:01:23.577Z,102006.25
2023-05-04T05:04:25.963Z,102002.33
2023-05-04T05:07:47.754Z,102002.03
2023-05-04T05:11:09.739Z,102004.90
2023-05-04T05:14:54.095Z,102003.34
2023-05-04T05:18:16.108Z,102004.98
2023-05-04T05:21:06.520Z,102010.59
2023-05-04T05:24:55.620Z,102005.84
2023-05-04T05:28:09.701Z,102010.95
2023-05-04T05:31:50.098Z,102010.29
2023-05-04T05:35:39.145Z,102012.84
2023-05-04T05:38:57.650Z,102014.41
2023-05-04T05:41:44.861Z,102009.12
2023-05-04T05:44:23.145Z,102008.93
2023-05-04T05:47:52.331Z,102011.54
2023-05-04T05:51:24.005Z,102006.51
2023-05-04T05:54:28.189Z,102007.20
2023-05-04T05:57:56.097Z,102005.59
2023-05-04T06:01:32.492Z,102003.27
2023-05-04T06:05:10.076Z,101999.77
2023-05-04T06:07:56.217Z,102003.67
2023-05-04T06:11:05.018Z,102000.02
2023-05-04T06:14:42.604Z,102004.36
2023-05-04T06:17:26.595Z,102003.18
2023-05-04T06:20:46.363Z,102001.21
2023-05-04T06:23:58.388Z,102000.00
2023-05-04T06:27:28.730Z,102000.27
2023-05-04T06:30:53.070Z,102000.01
2023-05-04T06:33:59.476Z,101998.58
2023-05-04T06:37:15.548Z,101999.52
2023-05-04T06:40:15.795Z,101997.32
2023-05-04T06:43:56.159Z,101992.95
2023-05-04T06:47:14.934Z,101998.05
2023-05-04T06:50:44.202Z,101996.48
2023-05-04T06:54:13.407Z,101993.52
2023-05-04T06:57:09.081Z,101993.05
2023-05-04T06:59:52.600Z,101993.77
2023-05-04T07:02:52.842Z,101990.13
2023-05-04T07:05:57.538Z,101992.34
2023-05-04T07:09:21.226Z,101993.27
2023-05-04T07:13:07.474Z,101993.79
2023-05-04T07:16:37.772Z,101985.21
2023-05-04T07:20:00.126Z,101975.77
2023-05-04T07:23:42.829Z,101969.00
2023-05-04T07:27:13.282Z,101966.95
2023-05-04T07:30:42.885Z,101965.13
2023-05-04T07:34:33.870Z,101957.08
2023-05-04T07:38:33.030Z,101955.84
2023-05-04T07:42:16.305Z,101952.36
2023-05-04T07:46:05.331Z,101949.79
2023-05-04T07:49:47.138Z,101949.08
2023-05-04T07:53:35.244Z,101945.84
2023-05-04T07:57:24.539Z,101940.55
2023-05-04T08:01:13.884Z,101937.68
2023-05-04T08:05:03.358Z,101938.20
2023-05-04T08:08:53.082Z,101939.88
2023-05-04T08:12:34.121Z,101937.67
2023-05-04T08:15:58.686Z,101931.00
2023-05-04T08:19:47.856Z,101938.36
2023-05-04T08:23:12.470Z,101935.10
2023-05-04T08:27:06.580Z,101936.48
2023-05-04T08:30:48.504Z,101936.38
2023-05-04T08:33:38.738Z,101934.63
2023-05-04T08:36:35.711Z,101939.47
2023-05-04T08:39:12.408Z,101938.49
2023-05-04T08:42:46.022Z,101935.10
2023-05-04T08:46:34.533Z,101931.69
2023-05-04T08:50:14.854Z,101930.23
2023-05-04T08:54:03.988Z,101930.83
2023-05-04T08:57:52.980Z,101936.47
2023-05-04T09:01:31.476Z,101934.48
2023-05-04T09:05:12.893Z,101932.77
2023-05-04T09:09:02.870Z,101935.85
2023-05-04T09:12:28.450Z,101935.61
2023-05-04T09:16:20.255Z,101930.86
2023-05-04T09:20:21.170Z,101934.66
2023-05-04T09:24:10.219Z,101935.02
2023-05-04T09:28:11.312Z,101931.02
2023-05-04T09:32:00.306Z,101921.35
2023-05-04T09:35:49.407Z,101924.80
2023-05-04T09:39:31.366Z,101915.74
2023-05-04T09:43:20.692Z,101910.58
2023-05-04T09:47:11.386Z,101908.52
2023-05-04T09:50:59.356Z,101910.63
2023-05-04T09:54:46.323Z,101899.55
2023-05-04T09:58:35.774Z,101891.95
2023-05-04T10:02:24.933Z,101887.52
2023-05-04T10:06:19.188Z,101882.14
2023-05-04T10:10:08.192Z,101880.73
2023-05-04T10:13:50.370Z,101878.63
2023-05-04T10:21:53.413Z,101873.30
2023-05-04T10:25:45.519Z,101868.27
2023-05-04T10:29:37.216Z,101864.64
2023-05-04T10:33:27.078Z,101863.10
2023-05-04T10:37:17.095Z,101860.36
2023-05-04T10:41:18.364Z,101856.82
2023-05-04T10:45:07.834Z,101859.18
2023-05-04T10:48:49.248Z,101847.13
2023-05-04T10:52:48.647Z,101829.67
2023-05-04T10:56:43.343Z,101831.33
2023-05-04T11:00:38.052Z,101831.24
2023-05-04T11:04:27.240Z,101824.20
2023-05-04T11:08:18.714Z,101818.52
2023-05-04T11:12:04.103Z,101817.98
2023-05-04T11:15:54.071Z,101804.64
2023-05-04T11:19:48.728Z,101804.29
2023-05-04T11:23:27.840Z,101801.55
2023-05-04T11:27:25.837Z,101798.98
2023-05-04T11:30:50.409Z,101793.35
2023-05-04T11:34:19.365Z,101790.21
2023-05-04T11:38:06.645Z,101795.30
2023-05-04T11:41:40.757Z,101799.33
2023-05-04T11:45:12.633Z,101802.52
2023-05-04T11:48:51.565Z,101796.33
2023-05-04T11:52:47.172Z,101784.81
2023-05-04T11:56:10.128Z,101769.37
2023-05-04T11:59:39.150Z,101767.71
2023-05-04T12:03:21.435Z,101766.94
2023-05-04T12:07:10.837Z,101771.27
2023-05-04T12:10:29.745Z,101773.30
2023-05-04T12:14:18.641Z,101767.79
2023-05-04T12:18:07.804Z,101769.81
2023-05-04T12:21:59.557Z,101767.29
2023-05-04T12:25:50.987Z,101760.81
2023-05-04T12:29:29.025Z,101760.41
2023-05-04T12:33:18.083Z,101758.89
2023-05-04T12:37:07.097Z,101759.09
2023-05-04T12:40:55.635Z,101747.95
2023-05-04T12:44:45.177Z,101743.09
2023-05-04T12:48:29.133Z,101739.51
2023-05-04T12:52:14.239Z,101740.85
2023-05-04T12:55:44.371Z,101734.05
2023-05-04T12:59:34.936Z,101732.98
2023-05-04T13:03:02.628Z,101730.11
2023-05-04T13:06:51.959Z,101723.08
2023-05-04T13:10:13.501Z,101715.14
2023-05-04T13:13:46.505Z,101716.98
2023-05-04T13:17:28.855Z,101720.52
2023-05-04T13:21:18.476Z,101716.44
2023-05-04T13:25:01.440Z,101704.65
2023-05-04T13:28:25.433Z,101690.00
2023-05-04T13:32:15.004Z,101681.02
2023-05-04T13:36:02.194Z,101669.73
2023-05-04T13:39:11.352Z,101664.12
2023-05-04T13:42:33.562Z,101661.03
2023-05-04T13:46:25.220Z,101659.38
2023-05-04T13:49:45.491Z,101665.21
2023-05-04T13:53:11.320Z,101656.30
2023-05-04T13:56:46.803Z,101660.96
2023-05-04T14:00:29.205Z,101653.62
2023-05-04T14:03:55.532Z,101646.52
2023-05-04T14:07:11.493Z,101652.48
2023-05-04T14:10:14.195Z,101661.05
2023-05-04T14:13:43.312Z,101651.77
2023-05-04T14:17:19.850Z,101640.95
2023-05-04T14:20:20.586Z,101626.65
2023-05-04T14:24:08.798Z,101623.95
2023-05-04T14:27:49.131Z,101621.71
2023-05-04T14:31:12.193Z,101623.54
2023-05-04T14:34:43.290Z,101626.42
2023-05-04T14:38:32.601Z,101619.84
2023-05-04T14:42:22.149Z,101618.87
2023-05-04T14:45:21.505Z,101616.12
2023-05-04T14:48:48.748Z,101609.02
2023-05-04T14:52:17.229Z,101605.16
2023-05-04T14:55:42.318Z,101605.53
2023-05-04T14:59:31.484Z,101604.33
2023-05-04T15:03:20.705Z,101597.09
2023-05-04T15:07:10.492Z,101590.11
2023-05-04T15:10:59.994Z,101585.65
2023-05-04T15:14:31.350Z,101580.80
2023-05-04T15:18:20.867Z,101576.77
2023-05-04T15:22:04.006Z,101571.27
2023-05-04T15:25:46.023Z,101574.08
2023-05-04T15:29:27.348Z,101572.44
2023-05-04T15:33:10.548Z,101569.11
2023-05-04T15:37:00.229Z,101574.34
2023-05-04T15:40:43.538Z,101568.23
2023-05-04T15:44:25.907Z,101564.12
2023-05-04T15:47:55.229Z,101555.31
2023-05-04T15:51:44.944Z,101556.92
2023-05-04T15:55:28.052Z,101554.88
2023-05-04T15:59:09.019Z,101551.67
2023-05-04T16:02:51.753Z,101547.34
2023-05-04T16:06:41.016Z,101539.95
2023-05-04T16:09:30.172Z,101536.20
2023-05-04T16:12:51.712Z,101540.50
2023-05-04T16:16:40.785Z,101536.44
2023-05-04T16:20:30.198Z,101530.48
2023-05-04T16:24:12.526Z,101532.05
2023-05-04T16:27:54.500Z,101534.65
2023-05-04T16:31:36.305Z,101532.76
2023-05-04T16:35:08.445Z,101529.45
2023-05-04T16:38:42.668Z,101523.30
2023-05-04T16:41:56.924Z,101520.92
2023-05-04T16:45:46.645Z,101526.09
2023-05-04T16:49:21.333Z,101522.16
2023-05-04T16:52:05.503Z,101520.88
2023-05-04T16:55:17.074Z,101521.61
2023-05-04T16:58:31.121Z,101520.49
2023-05-04T17:01:36.356Z,101522.22
2023-05-04T17:04:55.066Z,101527.36
2023-05-04T17:07:29.069Z,101527.38
2023-05-04T17:11:00.671Z,101521.63
2023-05-04T17:14:49.619Z,101518.08
2023-05-04T17:18:38.626Z,101515.13
2023-05-04T17:22:22.420Z,101513.54
2023-05-04T17:26:04.607Z,101513.86
2023-05-04T17:28:59.064Z,101521.23
2023-05-04T17:32:15.360Z,101517.77
2023-05-04T17:34:50.322Z,101517.54
2023-05-04T17:38:02.027Z,101515.90
2023-05-04T17:41:51.396Z,101520.10
2023-05-04T17:45:41.368Z,101526.58
2023-05-04T17:49:21.391Z,101529.24
2023-05-04T17:53:04.322Z,101521.89
2023-05-04T17:56:22.041Z,101522.39
2023-05-04T17:59:39.406Z,101520.58
2023-05-04T18:03:05.328Z,101520.58
2023-05-04T18:06:53.674Z,101516.94
2023-05-04T18:09:56.405Z,101518.32
2023-05-04T18:13:22.862Z,101523.30
2023-05-04T18:17:04.867Z,101530.98
2023-05-04T18:20:31.937Z,101537.75
2023-05-04T18:24:03.958Z,101545.13
2023-05-04T18:27:37.553Z,101547.52
2023-05-04T18:31:18.113Z,101548.28
2023-05-04T18:34:06.370Z,101543.27
2023-05-04T18:36:35.246Z,101539.75
2023-05-04T18:39:28.026Z,101541.26
2023-05-04T18:42:05.196Z,101540.10
2023-05-04T18:45:48.139Z,101540.99
2023-05-04T18:48:25.320Z,101546.52
2023-05-04T18:51:47.343Z,101552.20
2023-05-04T18:55:19.630Z,101557.41
2023-05-04T18:58:27.720Z,101554.75
2023-05-04T19:02:11.365Z,101554.56
2023-05-04T19:05:17.668Z,101558.52
2023-05-04T19:08:45.735Z,101565.61
2023-05-04T19:12:14.214Z,101571.10
2023-05-04T19:15:45.716Z,101567.00
2023-05-04T19:18:57.635Z,101565.59
2023-05-04T19:21:55.609Z,101567.42
2023-05-04T19:24:38.859Z,101569.36
2023-05-04T19:27:49.670Z,101570.04
2023-05-04T19:31:31.516Z,101575.49
2023-05-04T19:34:17.991Z,101573.81
2023-05-04T19:37:41.579Z,101572.02
2023-05-04T19:41:06.257Z,101569.30
2023-05-04T19:44:07.979Z,101565.88
2023-05-04T19:47:17.219Z,101565.94
2023-05-04T19:50:25.736Z,101566.23
2023-05-04T19:53:15.305Z,101569.85
2023-05-04T19:56:23.108Z,101565.17
2023-05-04T19:59:57.064Z,101558.13
2023-05-04T20:03:16.025Z,101551.75
2023-05-04T20:06:44.019Z,101547.86
2023-05-04T20:10:33.525Z,101548.61
2023-05-04T20:13:39.308Z,101546.55
2023-05-04T20:17:04.153Z,101551.02
2023-05-04T20:20:34.201Z,101550.80
2023-05-04T20:24:09.033Z,101556.58
2023-05-04T20:27:18.040Z,101552.53
2023-05-04T20:30:28.188Z,101552.23
2023-05-04T20:33:49.250Z,101548.14
2023-05-04T20:36:19.737Z,101551.90
2023-05-04T20:39:24.999Z,101550.55
2023-05-04T20:42:58.211Z,101550.19
2023-05-04T20:45:32.704Z,101553.27
2023-05-04T20:48:59.492Z,101544.78
2023-05-04T20:51:58.997Z,101549.39
2023-05-04T20:54:48.661Z,101554.21
2023-05-04T20:58:00.851Z,101550.52
2023-05-04T21:01:02.642Z,101550.74
2023-05-04T21:03:52.947Z,101549.06
2023-05-04T21:07:12.260Z,101546.60
2023-05-04T21:10:17.276Z,101551.56
2023-05-04T21:13:49.067Z,101551.11
2023-05-04T21:17:31.923Z,101555.84
2023-05-04T21:21:03.961Z,101554.42
2023-05-04T21:24:33.117Z,101549.05
2023-05-04T21:28:08.096Z,101548.98
2023-05-04T21:30:57.126Z,101545.23
2023-05-04T21:34:29.633Z,101554.37
2023-05-04T21:37:51.533Z,101551.95
2023-05-04T21:41:27.219Z,101552.27
2023-05-04T21:45:00.198Z,101547.91
2023-05-04T21:48:31.730Z,101541.58
2023-05-04T21:52:20.926Z,101541.34
2023-05-04T21:55:23.850Z,101540.47
2023-05-04T21:58:41.005Z,101541.90
2023-05-04T22:02:22.591Z,101537.07
2023-05-04T22:05:54.068Z,101538.62
2023-05-04T22:09:43.190Z,101534.97
2023-05-04T22:13:17.057Z,101535.98
2023-05-04T22:17:05.244Z,101533.20
2023-05-04T22:20:47.131Z,101531.13
2023-05-04T22:23:35.614Z,101529.62
2023-05-04T22:26:58.872Z,101533.66
2023-05-04T22:30:08.950Z,101532.86
2023-05-04T22:33:18.830Z,101536.06
2023-05-04T22:36:39.644Z,101538.42
2023-05-04T22:40:08.487Z,101539.09
2023-05-04T22:43:25.418Z,101540.58
2023-05-04T22:46:31.363Z,101545.54
2023-05-04T22:50:00.531Z,101542.40
2023-05-04T22:53:12.007Z,101544.41
2023-05-04T22:56:33.120Z,101536.80
2023-05-04T22:59:49.083Z,101537.20
2023-05-04T23:03:12.419Z,101542.91
2023-05-04T23:06:39.390Z,101542.45
2023-05-04T23:10:14.467Z,101537.66
2023-05-04T23:13:28.132Z,101533.38
2023-05-04T23:17:16.998Z,101527.98
2023-05-04T23:20:53.725Z,101528.62
2023-05-04T23:24:35.215Z,101527.10
2023-05-04T23:28:15.294Z,101526.17
2023-05-04T23:31:46.653Z,101518.09
2023-05-04T23:35:30.595Z,101516.79
2023-05-04T23:38:40.984Z,101515.73
2023-05-04T23:41:31.589Z,101514.66
2023-05-04T23:45:10.288Z,101517.50
2023-05-04T23:53:10.291Z,101514.98
2023-05-04T23:57:12.879Z,101512.44
